Urb Vegas de Florida, Puerto Rico
Current Conditions -  °F | °C
As of 11:56 PM on Sunday 19 Oct 2014 (Local Time) from TJSJ Reporting Station
Scattered Clouds Scattered Clouds  
Wind Chill: 82°   Ceiling: Unl
Heat Index: 89°   Visibility: 10mi
Dew Point: 75°   Wind: 0mph
Humidity: 79%   Direction: NA
Pressure: 29.96"   Gusts: NA
Location:  18.3645°N, 66.5673°W
Report Text: TJSJ 200356Z 00000KT 10SM FEW022 SCT040 28/24 A2996 RMK AO2 SLP145 T02780239 403170261
Loading
Personal Weather Stations






























Interactive Weather Map
Tropical Storm Tracking
New forecast layout! Learn more

10-Day Weather Forecast

Advertisements
Track Severe Weather on mobile